sensor_id;sensor_type;location;lat;lon;timestamp;pressure;altitude;pressure_sealevel;temperature;humidity
5298;BME280;14738;42.668;23.250;2023-06-14T00:01:13;48475.66;;;-141.90;100.00
5298;BME280;14738;42.668;23.250;2023-06-14T00:03:39;48517.34;;;-141.90;100.00
5298;BME280;14738;42.668;23.250;2023-06-14T00:06:04;48497.50;;;-141.90;100.00
5298;BME280;14738;42.668;23.250;2023-06-14T00:08:30;48509.41;;;-141.90;100.00
5298;BME280;14738;42.668;23.250;2023-06-14T00:10:55;48471.69;;;-141.90;100.00
5298;BME280;14738;42.668;23.250;2023-06-14T00:13:21;48509.41;;;-141.90;100.00
5298;BME280;14738;42.668;23.250;2023-06-14T00:15:46;48477.66;;;-141.90;100.00
5298;BME280;14738;42.668;23.250;2023-06-14T00:18:12;48503.47;;;-141.90;100.00
5298;BME280;14738;42.668;23.250;2023-06-14T00:20:38;48465.75;;;-141.90;100.00
5298;BME280;14738;42.668;23.250;2023-06-14T00:23:04;48485.59;;;-141.90;100.00
5298;BME280;14738;42.668;23.250;2023-06-14T00:25:30;48509.41;;;-141.90;100.00
5298;BME280;14738;42.668;23.250;2023-06-14T00:27:56;48465.75;;;-141.90;100.00
5298;BME280;14738;42.668;23.250;2023-06-14T00:30:21;48495.53;;;-141.90;100.00
5298;BME280;14738;42.668;23.250;2023-06-14T00:32:47;48507.44;;;-141.90;100.00
5298;BME280;14738;42.668;23.250;2023-06-14T00:35:13;48481.63;;;-141.90;100.00
5298;BME280;14738;42.668;23.250;2023-06-14T00:37:39;48499.50;;;-141.90;100.00
5298;BME280;14738;42.668;23.250;2023-06-14T00:40:05;48493.53;;;-141.90;100.00
5298;BME280;14738;42.668;23.250;2023-06-14T00:42:31;48513.38;;;-141.90;100.00
5298;BME280;14738;42.668;23.250;2023-06-14T00:44:57;48479.63;;;-141.90;100.00
5298;BME280;14738;42.668;23.250;2023-06-14T00:47:22;48489.56;;;-141.90;100.00
5298;BME280;14738;42.668;23.250;2023-06-14T00:49:49;48495.53;;;-141.90;100.00
5298;BME280;14738;42.668;23.250;2023-06-14T00:52:16;48541.19;;;-141.90;100.00
5298;BME280;14738;42.668;23.250;2023-06-14T00:54:42;48507.44;;;-141.90;100.00
5298;BME280;14738;42.668;23.250;2023-06-14T00:57:08;48497.50;;;-141.90;100.00
5298;BME280;14738;42.668;23.250;2023-06-14T00:59:38;48505.44;;;-141.90;100.00
5298;BME280;14738;42.668;23.250;2023-06-14T01:02:07;48477.66;;;-141.90;100.00
5298;BME280;14738;42.668;23.250;2023-06-14T01:04:32;48509.41;;;-141.90;100.00
5298;BME280;14738;42.668;23.250;2023-06-14T01:10:08;48501.47;;;-141.90;100.00
5298;BME280;14738;42.668;23.250;2023-06-14T01:12:46;48503.47;;;-141.90;100.00
5298;BME280;14738;42.668;23.250;2023-06-14T01:15:15;48491.56;;;-141.90;100.00
5298;BME280;14738;42.668;23.250;2023-06-14T01:17:41;48517.34;;;-141.90;100.00
5298;BME280;14738;42.668;23.250;2023-06-14T01:20:11;48489.56;;;-141.90;100.00
5298;BME280;14738;42.668;23.250;2023-06-14T01:22:50;48509.41;;;-141.90;100.00
5298;BME280;14738;42.668;23.250;2023-06-14T01:25:17;48477.66;;;-141.90;100.00
5298;BME280;14738;42.668;23.250;2023-06-14T01:27:46;48495.53;;;-141.90;100.00
5298;BME280;14738;42.668;23.250;2023-06-14T01:30:13;48505.44;;;-141.90;100.00
5298;BME280;14738;42.668;23.250;2023-06-14T01:32:39;48513.38;;;-141.90;100.00
5298;BME280;14738;42.668;23.250;2023-06-14T01:35:05;48523.31;;;-141.90;100.00
5298;BME280;14738;42.668;23.250;2023-06-14T01:37:31;48519.34;;;-141.90;100.00
5298;BME280;14738;42.668;23.250;2023-06-14T01:39:57;48513.38;;;-141.90;100.00
5298;BME280;14738;42.668;23.250;2023-06-14T01:42:23;48453.81;;;-141.90;100.00
5298;BME280;14738;42.668;23.250;2023-06-14T01:44:51;48515.38;;;-141.90;100.00
5298;BME280;14738;42.668;23.250;2023-06-14T01:47:18;48533.25;;;-141.90;100.00
5298;BME280;14738;42.668;23.250;2023-06-14T01:49:46;48469.72;;;-141.90;100.00
5298;BME280;14738;42.668;23.250;2023-06-14T01:52:11;48489.56;;;-141.90;100.00
5298;BME280;14738;42.668;23.250;2023-06-14T01:54:37;48507.44;;;-141.90;100.00
5298;BME280;14738;42.668;23.250;2023-06-14T01:57:07;48485.59;;;-141.90;100.00
5298;BME280;14738;42.668;23.250;2023-06-14T01:59:33;48477.66;;;-141.90;100.00
5298;BME280;14738;42.668;23.250;2023-06-14T02:02:01;48519.34;;;-141.90;100.00
5298;BME280;14738;42.668;23.250;2023-06-14T02:04:26;48497.50;;;-141.90;100.00
5298;BME280;14738;42.668;23.250;2023-06-14T02:06:51;48497.50;;;-141.90;100.00
5298;BME280;14738;42.668;23.250;2023-06-14T02:09:17;48499.50;;;-141.90;100.00
5298;BME280;14738;42.668;23.250;2023-06-14T02:11:42;48533.25;;;-141.90;100.00
5298;BME280;14738;42.668;23.250;2023-06-14T02:14:08;48499.50;;;-141.90;100.00
5298;BME280;14738;42.668;23.250;2023-06-14T02:16:36;48495.53;;;-141.90;100.00
5298;BME280;14738;42.668;23.250;2023-06-14T02:19:01;48529.28;;;-141.90;100.00
5298;BME280;14738;42.668;23.250;2023-06-14T02:21:26;48491.56;;;-141.90;100.00
5298;BME280;14738;42.668;23.250;2023-06-14T02:23:52;48483.59;;;-141.90;100.00
5298;BME280;14738;42.668;23.250;2023-06-14T02:26:17;48499.50;;;-141.90;100.00
5298;BME280;14738;42.668;23.250;2023-06-14T02:28:43;48511.41;;;-141.90;100.00
5298;BME280;14738;42.668;23.250;2023-06-14T02:31:08;48473.69;;;-141.90;100.00
5298;BME280;14738;42.668;23.250;2023-06-14T02:33:34;48493.53;;;-141.90;100.00
5298;BME280;14738;42.668;23.250;2023-06-14T02:36:00;48465.75;;;-141.90;100.00
5298;BME280;14738;42.668;23.250;2023-06-14T02:38:27;48533.25;;;-141.90;100.00
5298;BME280;14738;42.668;23.250;2023-06-14T02:40:53;48433.97;;;-141.90;100.00
5298;BME280;14738;42.668;23.250;2023-06-14T02:43:18;48501.47;;;-141.90;100.00
5298;BME280;14738;42.668;23.250;2023-06-14T02:45:44;48493.53;;;-141.90;100.00
5298;BME280;14738;42.668;23.250;2023-06-14T02:48:10;48469.72;;;-141.90;100.00
5298;BME280;14738;42.668;23.250;2023-06-14T02:50:36;48517.34;;;-141.90;100.00
5298;BME280;14738;42.668;23.250;2023-06-14T02:53:02;48497.50;;;-141.90;100.00
5298;BME280;14738;42.668;23.250;2023-06-14T02:55:28;48449.84;;;-141.90;100.00
5298;BME280;14738;42.668;23.250;2023-06-14T02:57:54;48479.63;;;-141.90;100.00
5298;BME280;14738;42.668;23.250;2023-06-14T03:00:20;48493.53;;;-141.90;100.00
5298;BME280;14738;42.668;23.250;2023-06-14T03:02:45;48473.69;;;-141.90;100.00
5298;BME280;14738;42.668;23.250;2023-06-14T03:05:11;48505.44;;;-141.90;100.00
5298;BME280;14738;42.668;23.250;2023-06-14T03:07:36;48497.50;;;-141.90;100.00
5298;BME280;14738;42.668;23.250;2023-06-14T03:10:10;48471.69;;;-141.90;100.00
5298;BME280;14738;42.668;23.250;2023-06-14T03:12:38;48501.47;;;-141.90;100.00
5298;BME280;14738;42.668;23.250;2023-06-14T03:15:03;48507.44;;;-141.90;100.00
5298;BME280;14738;42.668;23.250;2023-06-14T03:17:29;48509.41;;;-141.90;100.00
5298;BME280;14738;42.668;23.250;2023-06-14T03:19:57;48489.56;;;-141.90;100.00
5298;BME280;14738;42.668;23.250;2023-06-14T03:22:22;48489.56;;;-141.90;100.00
5298;BME280;14738;42.668;23.250;2023-06-14T03:24:48;48493.53;;;-141.90;100.00
5298;BME280;14738;42.668;23.250;2023-06-14T03:27:13;48491.56;;;-141.90;100.00
5298;BME280;14738;42.668;23.250;2023-06-14T03:29:39;48521.34;;;-141.90;100.00
5298;BME280;14738;42.668;23.250;2023-06-14T03:32:05;48465.75;;;-141.90;100.00
5298;BME280;14738;42.668;23.250;2023-06-14T03:34:31;48513.38;;;-141.90;100.00
5298;BME280;14738;42.668;23.250;2023-06-14T03:36:56;48493.53;;;-141.90;100.00
5298;BME280;14738;42.668;23.250;2023-06-14T03:39:21;48517.34;;;-141.90;100.00
5298;BME280;14738;42.668;23.250;2023-06-14T03:41:47;48489.56;;;-141.90;100.00
5298;BME280;14738;42.668;23.250;2023-06-14T03:44:15;48473.69;;;-141.90;100.00
5298;BME280;14738;42.668;23.250;2023-06-14T03:46:41;48517.34;;;-141.90;100.00
5298;BME280;14738;42.668;23.250;2023-06-14T03:49:07;48487.56;;;-141.90;100.00
5298;BME280;14738;42.668;23.250;2023-06-14T03:51:32;48479.63;;;-141.90;100.00
5298;BME280;14738;42.668;23.250;2023-06-14T03:54:00;48521.34;;;-141.90;100.00
5298;BME280;14738;42.668;23.250;2023-06-14T03:56:26;48485.59;;;-141.90;100.00
5298;BME280;14738;42.668;23.250;2023-06-14T03:58:52;48521.34;;;-141.90;100.00
5298;BME280;14738;42.668;23.250;2023-06-14T04:01:17;48497.50;;;-141.90;100.00
5298;BME280;14738;42.668;23.250;2023-06-14T04:03:43;48509.41;;;-141.90;100.00
5298;BME280;14738;42.668;23.250;2023-06-14T04:06:08;48483.59;;;-141.90;100.00
5298;BME280;14738;42.668;23.250;2023-06-14T04:08:34;48543.16;;;-141.90;100.00
5298;BME280;14738;42.668;23.250;2023-06-14T04:11:00;48499.50;;;-141.90;100.00
5298;BME280;14738;42.668;23.250;2023-06-14T04:13:25;48507.44;;;-141.90;100.00
5298;BME280;14738;42.668;23.250;2023-06-14T04:15:51;48523.31;;;-141.90;100.00
5298;BME280;14738;42.668;23.250;2023-06-14T04:18:16;48515.38;;;-141.90;100.00
5298;BME280;14738;42.668;23.250;2023-06-14T04:20:43;48485.59;;;-141.90;100.00
5298;BME280;14738;42.668;23.250;2023-06-14T04:23:16;48521.34;;;-141.90;100.00
5298;BME280;14738;42.668;23.250;2023-06-14T04:25:43;48513.38;;;-141.90;100.00
5298;BME280;14738;42.668;23.250;2023-06-14T04:28:14;48513.38;;;-141.90;100.00
5298;BME280;14738;42.668;23.250;2023-06-14T04:30:43;48539.19;;;-141.90;100.00
5298;BME280;14738;42.668;23.250;2023-06-14T04:33:10;48521.34;;;-141.90;100.00
5298;BME280;14738;42.668;23.250;2023-06-14T04:35:36;48553.09;;;-141.90;100.00
5298;BME280;14738;42.668;23.250;2023-06-14T04:38:03;48545.16;;;-141.90;100.00
5298;BME280;14738;42.668;23.250;2023-06-14T04:40:30;48582.88;;;-141.90;100.00
5298;BME280;14738;42.668;23.250;2023-06-14T04:42:56;48664.28;;;-141.90;100.00
5298;BME280;14738;42.668;23.250;2023-06-14T04:45:23;48723.84;;;-141.90;44.57
5298;BME280;14738;42.668;23.250;2023-06-14T04:47:49;48860.81;;;-141.90;41.34
5298;BME280;14738;42.668;23.250;2023-06-14T04:50:15;48898.56;;;-141.90;37.93
5298;BME280;14738;42.668;23.250;2023-06-14T04:52:41;48842.97;;;-141.90;37.22
5298;BME280;14738;42.668;23.250;2023-06-14T04:55:07;48892.59;;;-141.90;36.51
5298;BME280;14738;42.668;23.250;2023-06-14T04:57:33;48932.31;;;-141.90;35.73
5298;BME280;14738;42.668;23.250;2023-06-14T05:00:00;48942.22;;;-141.90;33.84
5298;BME280;14738;42.668;23.250;2023-06-14T05:02:26;48926.34;;;-141.90;34.29
5298;BME280;14738;42.668;23.250;2023-06-14T05:04:53;48962.09;;;-141.90;34.42
5298;BME280;14738;42.668;23.250;2023-06-14T05:07:18;48966.06;;;-141.90;33.48
5298;BME280;14738;42.668;23.250;2023-06-14T05:09:44;48999.81;;;-141.90;32.30
5298;BME280;14738;42.668;23.250;2023-06-14T05:12:10;49019.66;;;-141.90;31.51
5298;BME280;14738;42.668;23.250;2023-06-14T05:14:36;48985.91;;;-141.90;31.21
5298;BME280;14738;42.668;23.250;2023-06-14T05:17:02;49039.53;;;-141.90;32.12
5298;BME280;14738;42.668;23.250;2023-06-14T05:21:56;48981.94;;;-141.90;30.84
5298;BME280;14738;42.668;23.250;2023-06-14T05:24:21;49037.53;;;-141.90;31.37
5298;BME280;14738;42.668;23.250;2023-06-14T05:26:47;49128.88;;;-141.90;30.44
5298;BME280;14738;42.668;23.250;2023-06-14T05:29:12;49065.34;;;-141.90;31.10
5298;BME280;14738;42.668;23.250;2023-06-14T05:31:38;48997.81;;;-141.90;31.09
5298;BME280;14738;42.668;23.250;2023-06-14T05:34:04;48902.53;;;-141.90;32.95
5298;BME280;14738;42.668;23.250;2023-06-14T05:36:29;48783.41;;;-141.90;34.80
5298;BME280;14738;42.668;23.250;2023-06-14T05:38:55;48763.53;;;-141.90;36.51
5298;BME280;14738;42.668;23.250;2023-06-14T05:41:27;48739.72;;;-141.90;38.02
5298;BME280;14738;42.668;23.250;2023-06-14T05:43:54;48715.91;;;-141.90;38.70
5298;BME280;14738;42.668;23.250;2023-06-14T05:46:20;48676.19;;;-141.90;39.05
5298;BME280;14738;42.668;23.250;2023-06-14T05:48:53;48648.38;;;-141.90;41.47
5298;BME280;14738;42.668;23.250;2023-06-14T05:51:18;48640.44;;;-141.90;42.95
5298;BME280;14738;42.668;23.250;2023-06-14T05:53:47;48604.72;;;-141.90;46.13
5298;BME280;14738;42.668;23.250;2023-06-14T05:56:13;48588.84;;;-141.90;46.65
5298;BME280;14738;42.668;23.250;2023-06-14T05:58:39;48600.75;;;-141.90;47.52
5298;BME280;14738;42.668;23.250;2023-06-14T06:01:05;48565.00;;;-141.90;47.95
5298;BME280;14738;42.668;23.250;2023-06-14T06:03:30;48582.88;;;-141.90;48.94
5298;BME280;14738;42.668;23.250;2023-06-14T06:05:55;48604.72;;;-141.90;49.32
5298;BME280;14738;42.668;23.250;2023-06-14T06:08:21;48568.97;;;-141.90;49.88
5298;BME280;14738;42.668;23.250;2023-06-14T06:10:46;48553.09;;;-141.90;52.36
5298;BME280;14738;42.668;23.250;2023-06-14T06:13:12;48580.88;;;-141.90;53.74
5298;BME280;14738;42.668;23.250;2023-06-14T06:15:37;48551.09;;;-141.90;56.44
5298;BME280;14738;42.668;23.250;2023-06-14T06:18:02;48545.16;;;-141.90;56.04
5298;BME280;14738;42.668;23.250;2023-06-14T06:20:29;48549.13;;;-141.90;58.24
5298;BME280;14738;42.668;23.250;2023-06-14T06:22:57;48511.41;;;-141.90;58.72
5298;BME280;14738;42.668;23.250;2023-06-14T06:25:23;48511.41;;;-141.90;58.40
5298;BME280;14738;42.668;23.250;2023-06-14T06:27:51;48517.34;;;-141.90;59.98
5298;BME280;14738;42.668;23.250;2023-06-14T06:30:16;48547.13;;;-141.90;61.22
5298;BME280;14738;42.668;23.250;2023-06-14T06:32:42;48527.28;;;-141.90;61.49
5298;BME280;14738;42.668;23.250;2023-06-14T06:35:07;48559.06;;;-141.90;62.32
5298;BME280;14738;42.668;23.250;2023-06-14T06:37:36;48555.09;;;-141.90;60.37
5298;BME280;14738;42.668;23.250;2023-06-14T06:40:01;48519.34;;;-141.90;58.10
5298;BME280;14738;42.668;23.250;2023-06-14T06:42:28;48568.97;;;-141.90;57.20
5298;BME280;14738;42.668;23.250;2023-06-14T06:44:54;48580.88;;;-141.90;54.14
5298;BME280;14738;42.668;23.250;2023-06-14T06:47:19;48700.00;;;-141.90;46.30
5298;BME280;14738;42.668;23.250;2023-06-14T06:49:45;48771.47;;;-141.90;39.66
5298;BME280;14738;42.668;23.250;2023-06-14T06:52:10;48837.00;;;-141.90;37.09
5298;BME280;14738;42.668;23.250;2023-06-14T06:54:35;48928.34;;;-141.90;36.36
5298;BME280;14738;42.668;23.250;2023-06-14T06:57:01;49017.69;;;-141.90;33.18
5298;BME280;14738;42.668;23.250;2023-06-14T06:59:27;48952.16;;;-141.90;32.77
5298;BME280;14738;42.668;23.250;2023-06-14T07:01:52;48926.34;;;-141.90;32.73
5298;BME280;14738;42.668;23.250;2023-06-14T07:04:18;48918.41;;;-141.90;32.67
5298;BME280;14738;42.668;23.250;2023-06-14T07:06:46;48938.25;;;-141.90;33.09
5298;BME280;14738;42.668;23.250;2023-06-14T07:09:12;48856.84;;;-141.90;35.11
5298;BME280;14738;42.668;23.250;2023-06-14T07:11:39;48781.41;;;-141.90;36.95
5298;BME280;14738;42.668;23.250;2023-06-14T07:14:05;48682.13;;;-141.90;41.16
5298;BME280;14738;42.668;23.250;2023-06-14T07:16:31;48676.19;;;-141.90;41.24
5298;BME280;14738;42.668;23.250;2023-06-14T07:18:56;48692.06;;;-141.90;41.99
5298;BME280;14738;42.668;23.250;2023-06-14T07:21:22;48747.66;;;-141.90;39.00
5298;BME280;14738;42.668;23.250;2023-06-14T07:23:47;48767.50;;;-141.90;40.12
5298;BME280;14738;42.668;23.250;2023-06-14T07:26:12;48674.19;;;-141.90;40.82
5298;BME280;14738;42.668;23.250;2023-06-14T07:28:38;48634.50;;;-141.90;43.71
5298;BME280;14738;42.668;23.250;2023-06-14T07:31:03;48672.22;;;-141.90;42.37
5298;BME280;14738;42.668;23.250;2023-06-14T07:33:28;48664.28;;;-141.90;42.14
5298;BME280;14738;42.668;23.250;2023-06-14T07:35:54;48646.41;;;-141.90;42.93
5298;BME280;14738;42.668;23.250;2023-06-14T07:38:20;48668.25;;;-141.90;43.55
5298;BME280;14738;42.668;23.250;2023-06-14T07:40:46;48664.28;;;-141.90;43.45
5298;BME280;14738;42.668;23.250;2023-06-14T07:43:11;48664.28;;;-141.90;44.49
5298;BME280;14738;42.668;23.250;2023-06-14T07:45:37;48700.00;;;-141.90;42.83
5298;BME280;14738;42.668;23.250;2023-06-14T07:48:02;48715.91;;;-141.90;42.34
5298;BME280;14738;42.668;23.250;2023-06-14T07:50:28;48684.13;;;-141.90;40.83
5298;BME280;14738;42.668;23.250;2023-06-14T07:52:54;48690.09;;;-141.90;40.92
5298;BME280;14738;42.668;23.250;2023-06-14T07:55:19;48753.63;;;-141.90;38.82
5298;BME280;14738;42.668;23.250;2023-06-14T07:57:45;48729.78;;;-141.90;38.76
5298;BME280;14738;42.668;23.250;2023-06-14T08:00:11;48723.84;;;-141.90;39.39
5298;BME280;14738;42.668;23.250;2023-06-14T08:02:41;48680.16;;;-141.90;40.15
5298;BME280;14738;42.668;23.250;2023-06-14T08:05:08;48694.06;;;-141.90;40.72
5298;BME280;14738;42.668;23.250;2023-06-14T08:07:34;48694.06;;;-141.90;39.99
5298;BME280;14738;42.668;23.250;2023-06-14T08:10:00;48698.03;;;-141.90;42.48
5298;BME280;14738;42.668;23.250;2023-06-14T08:12:26;48731.78;;;-141.90;39.40
5298;BME280;14738;42.668;23.250;2023-06-14T08:14:51;48765.53;;;-141.90;39.65
5298;BME280;14738;42.668;23.250;2023-06-14T08:17:16;48660.31;;;-141.90;38.83
5298;BME280;14738;42.668;23.250;2023-06-14T08:19:42;48711.91;;;-141.90;38.57
5298;BME280;14738;42.668;23.250;2023-06-14T08:22:07;48733.75;;;-141.90;38.15
5298;BME280;14738;42.668;23.250;2023-06-14T08:24:33;48733.75;;;-141.90;40.12
5298;BME280;14738;42.668;23.250;2023-06-14T08:26:58;48711.91;;;-141.90;41.57
5298;BME280;14738;42.668;23.250;2023-06-14T08:29:26;48672.22;;;-141.90;40.47
5298;BME280;14738;42.668;23.250;2023-06-14T08:31:54;48747.66;;;-141.90;39.43
5298;BME280;14738;42.668;23.250;2023-06-14T08:34:20;48743.69;;;-141.90;38.46
5298;BME280;14738;42.668;23.250;2023-06-14T08:36:46;48723.84;;;-141.90;38.12
5298;BME280;14738;42.668;23.250;2023-06-14T08:39:11;48721.84;;;-141.90;38.92
5298;BME280;14738;42.668;23.250;2023-06-14T08:41:37;48696.03;;;-141.90;38.96
5298;BME280;14738;42.668;23.250;2023-06-14T08:44:03;48676.19;;;-141.90;41.24
5298;BME280;14738;42.668;23.250;2023-06-14T08:46:32;48614.63;;;-141.90;42.10
5298;BME280;14738;42.668;23.250;2023-06-14T08:48:59;48658.31;;;-141.90;42.68
5298;BME280;14738;42.668;23.250;2023-06-14T08:51:27;48612.66;;;-141.90;43.29
5298;BME280;14738;42.668;23.250;2023-06-14T08:53:59;48616.63;;;-141.90;42.75
5298;BME280;14738;42.668;23.250;2023-06-14T08:56:27;48703.97;;;-141.90;40.64
5298;BME280;14738;42.668;23.250;2023-06-14T08:58:54;48670.22;;;-141.90;39.79
5298;BME280;14738;42.668;23.250;2023-06-14T09:01:21;48703.97;;;-141.90;40.72
5298;BME280;14738;42.668;23.250;2023-06-14T09:03:49;48711.91;;;-141.90;40.68
5298;BME280;14738;42.668;23.250;2023-06-14T09:06:15;48680.16;;;-141.90;41.12
5298;BME280;14738;42.668;23.250;2023-06-14T09:08:45;48676.19;;;-141.90;40.20
5298;BME280;14738;42.668;23.250;2023-06-14T09:11:12;48694.06;;;-141.90;41.17
5298;BME280;14738;42.668;23.250;2023-06-14T09:13:38;48688.09;;;-141.90;40.12
5298;BME280;14738;42.668;23.250;2023-06-14T09:16:05;48680.16;;;-141.90;40.87
5298;BME280;14738;42.668;23.250;2023-06-14T09:18:42;48684.13;;;-141.90;40.41
5298;BME280;14738;42.668;23.250;2023-06-14T09:21:13;48705.97;;;-141.90;40.45
5298;BME280;14738;42.668;23.250;2023-06-14T09:23:43;48684.13;;;-141.90;39.72
5298;BME280;14738;42.668;23.250;2023-06-14T09:26:10;48654.34;;;-141.90;40.27
5298;BME280;14738;42.668;23.250;2023-06-14T09:28:36;48690.09;;;-141.90;39.49
5298;BME280;14738;42.668;23.250;2023-06-14T09:31:07;48636.47;;;-141.90;40.92
5298;BME280;14738;42.668;23.250;2023-06-14T09:33:33;48672.22;;;-141.90;40.77
5298;BME280;14738;42.668;23.250;2023-06-14T09:35:59;48688.09;;;-141.90;40.78
5298;BME280;14738;42.668;23.250;2023-06-14T09:38:24;48674.19;;;-141.90;40.01
5298;BME280;14738;42.668;23.250;2023-06-14T09:40:50;48648.38;;;-141.90;40.10
5298;BME280;14738;42.668;23.250;2023-06-14T09:43:16;48678.16;;;-141.90;39.61
5298;BME280;14738;42.668;23.250;2023-06-14T09:45:44;48690.09;;;-141.90;39.22
5298;BME280;14738;42.668;23.250;2023-06-14T09:48:11;48713.91;;;-141.90;38.83
5298;BME280;14738;42.668;23.250;2023-06-14T09:50:37;48735.75;;;-141.90;38.85
5298;BME280;14738;42.668;23.250;2023-06-14T09:53:07;48700.00;;;-141.90;39.78
5298;BME280;14738;42.668;23.250;2023-06-14T09:55:36;48672.22;;;-141.90;40.27
5298;BME280;14738;42.668;23.250;2023-06-14T09:58:04;48642.44;;;-141.90;39.51
5298;BME280;14738;42.668;23.250;2023-06-14T10:00:32;48592.81;;;-141.90;43.13
5298;BME280;14738;42.668;23.250;2023-06-14T10:03:00;48620.59;;;-141.90;42.44
5298;BME280;14738;42.668;23.250;2023-06-14T10:05:29;48670.22;;;-141.90;42.96
5298;BME280;14738;42.668;23.250;2023-06-14T10:08:05;48664.28;;;-141.90;41.31
5298;BME280;14738;42.668;23.250;2023-06-14T10:10:33;48688.09;;;-141.90;39.46
5298;BME280;14738;42.668;23.250;2023-06-14T10:12:58;48700.00;;;-141.90;39.56
5298;BME280;14738;42.668;23.250;2023-06-14T10:16:02;48660.31;;;-141.90;40.62
5298;BME280;14738;42.668;23.250;2023-06-14T10:21:13;48662.28;;;-141.90;40.79
5298;BME280;14738;42.668;23.250;2023-06-14T10:23:41;48644.41;;;-141.90;40.58
5298;BME280;14738;42.668;23.250;2023-06-14T10:26:08;48662.28;;;-141.90;40.00
5298;BME280;14738;42.668;23.250;2023-06-14T10:28:37;48676.19;;;-141.90;40.35
5298;BME280;14738;42.668;23.250;2023-06-14T10:33:33;48692.06;;;-141.90;40.64
5298;BME280;14738;42.668;23.250;2023-06-14T10:39:14;48676.19;;;-141.90;40.16
5298;BME280;14738;42.668;23.250;2023-06-14T10:41:40;48698.03;;;-141.90;40.15
5298;BME280;14738;42.668;23.250;2023-06-14T10:46:37;48666.25;;;-141.90;39.36
5298;BME280;14738;42.668;23.250;2023-06-14T10:49:03;48696.03;;;-141.90;40.00
5298;BME280;14738;42.668;23.250;2023-06-14T10:51:39;48715.91;;;-141.90;38.97
5298;BME280;14738;42.668;23.250;2023-06-14T10:54:15;48713.91;;;-141.90;38.86
5298;BME280;14738;42.668;23.250;2023-06-14T10:56:51;48737.72;;;-141.90;37.87
5298;BME280;14738;42.668;23.250;2023-06-14T10:59:18;48707.94;;;-141.90;38.11
5298;BME280;14738;42.668;23.250;2023-06-14T11:02:07;48707.94;;;-141.90;38.69
5298;BME280;14738;42.668;23.250;2023-06-14T11:04:52;48719.88;;;-141.90;37.94
5298;BME280;14738;42.668;23.250;2023-06-14T11:12:22;48713.91;;;-141.90;36.97
5298;BME280;14738;42.668;23.250;2023-06-14T11:14:49;48709.94;;;-141.90;37.68
5298;BME280;14738;42.668;23.250;2023-06-14T11:17:15;48700.00;;;-141.90;38.69
5298;BME280;14738;42.668;23.250;2023-06-14T11:19:40;48680.16;;;-141.90;38.88
5298;BME280;14738;42.668;23.250;2023-06-14T11:22:06;48692.06;;;-141.90;38.75
5298;BME280;14738;42.668;23.250;2023-06-14T11:24:32;48733.75;;;-141.90;38.03
5298;BME280;14738;42.668;23.250;2023-06-14T11:26:58;48660.31;;;-141.90;39.07
5298;BME280;14738;42.668;23.250;2023-06-14T11:29:23;48690.09;;;-141.90;38.74
5298;BME280;14738;42.668;23.250;2023-06-14T11:31:50;48690.09;;;-141.90;40.13
5298;BME280;14738;42.668;23.250;2023-06-14T11:34:17;48666.25;;;-141.90;38.89
5298;BME280;14738;42.668;23.250;2023-06-14T11:36:42;48680.16;;;-141.90;38.74
5298;BME280;14738;42.668;23.250;2023-06-14T11:39:08;48703.97;;;-141.90;37.25
5298;BME280;14738;42.668;23.250;2023-06-14T11:41:39;48682.13;;;-141.90;38.06
5298;BME280;14738;42.668;23.250;2023-06-14T11:44:06;48698.03;;;-141.90;38.16
5298;BME280;14738;42.668;23.250;2023-06-14T11:46:34;48690.09;;;-141.90;37.78
5298;BME280;14738;42.668;23.250;2023-06-14T11:49:01;48747.66;;;-141.90;37.73
5298;BME280;14738;42.668;23.250;2023-06-14T11:51:33;48713.91;;;-141.90;37.64
5298;BME280;14738;42.668;23.250;2023-06-14T11:53:58;48700.00;;;-141.90;37.14
5298;BME280;14738;42.668;23.250;2023-06-14T11:56:24;48709.94;;;-141.90;37.86
5298;BME280;14738;42.668;23.250;2023-06-14T11:58:52;48703.97;;;-141.90;38.25
5298;BME280;14738;42.668;23.250;2023-06-14T12:01:18;48733.75;;;-141.90;38.24
5298;BME280;14738;42.668;23.250;2023-06-14T12:03:48;48700.00;;;-141.90;37.18
5298;BME280;14738;42.668;23.250;2023-06-14T12:06:14;48715.91;;;-141.90;37.60
5298;BME280;14738;42.668;23.250;2023-06-14T12:08:40;48684.13;;;-141.90;38.00
5298;BME280;14738;42.668;23.250;2023-06-14T12:11:14;48715.91;;;-141.90;37.77
5298;BME280;14738;42.668;23.250;2023-06-14T12:13:41;48703.97;;;-141.90;37.39
5298;BME280;14738;42.668;23.250;2023-06-14T12:16:08;48719.88;;;-141.90;37.85
5298;BME280;14738;42.668;23.250;2023-06-14T12:18:36;48707.94;;;-141.90;37.44
5298;BME280;14738;42.668;23.250;2023-06-14T12:21:06;48690.09;;;-141.90;38.23
5298;BME280;14738;42.668;23.250;2023-06-14T12:23:58;48709.94;;;-141.90;37.06
5298;BME280;14738;42.668;23.250;2023-06-14T12:26:24;48717.88;;;-141.90;36.80
5298;BME280;14738;42.668;23.250;2023-06-14T12:28:51;48735.75;;;-141.90;37.01
5298;BME280;14738;42.668;23.250;2023-06-14T12:31:16;48775.47;;;-141.90;36.16
5298;BME280;14738;42.668;23.250;2023-06-14T12:33:42;48753.63;;;-141.90;37.25
5298;BME280;14738;42.668;23.250;2023-06-14T12:36:09;48753.63;;;-141.90;36.38
5298;BME280;14738;42.668;23.250;2023-06-14T12:38:35;48747.66;;;-141.90;35.93
5298;BME280;14738;42.668;23.250;2023-06-14T12:41:01;48735.75;;;-141.90;36.10
5298;BME280;14738;42.668;23.250;2023-06-14T12:43:26;48771.47;;;-141.90;35.98
5298;BME280;14738;42.668;23.250;2023-06-14T12:45:52;48771.47;;;-141.90;34.89
5298;BME280;14738;42.668;23.250;2023-06-14T12:48:17;48745.69;;;-141.90;35.84
5298;BME280;14738;42.668;23.250;2023-06-14T12:50:43;48723.84;;;-141.90;36.37
5298;BME280;14738;42.668;23.250;2023-06-14T12:53:08;48763.53;;;-141.90;37.04
5298;BME280;14738;42.668;23.250;2023-06-14T12:55:33;48743.69;;;-141.90;36.96